createdAt,value
2018-11-22T12:18:48.084Z,100084.91
2018-11-22T12:21:52.619Z,100077.02
2018-11-22T12:24:57.205Z,100077.98
2018-11-22T12:28:02.647Z,100074.75
2018-11-22T12:31:07.338Z,100081.49
2018-11-22T12:34:15.091Z,100084.73
2018-11-22T12:37:24.769Z,100082.55
2018-11-22T12:40:29.368Z,100086.31
2018-11-22T12:43:33.907Z,100087.02
2018-11-22T12:46:39.136Z,100091.73
2018-11-22T12:49:43.768Z,100089.00
2018-11-22T12:52:48.300Z,100090.43
2018-11-22T12:55:52.937Z,100088.99
2018-11-22T12:58:57.476Z,100089.82
2018-11-22T13:02:02.085Z,100099.77
2018-11-22T13:05:08.200Z,100095.25
2018-11-22T13:08:12.762Z,100097.97
2018-11-22T13:11:17.344Z,100094.22
2018-11-22T13:14:22.022Z,100089.38
2018-11-22T13:17:26.818Z,100099.66
2018-11-22T13:20:31.375Z,100099.23
2018-11-22T13:23:35.931Z,100099.52
2018-11-22T13:26:40.635Z,100100.48
2018-11-22T13:29:45.179Z,100099.14
2018-11-22T13:32:50.442Z,100105.23
2018-11-22T13:35:55.051Z,100105.94
2018-11-22T13:38:59.616Z,100107.44
2018-11-22T13:42:04.295Z,100102.95
2018-11-22T13:45:11.860Z,100114.72
2018-11-22T13:48:16.428Z,100115.73
2018-11-22T13:51:21.015Z,100106.72
2018-11-22T13:54:25.650Z,100110.95
2018-11-22T13:57:30.229Z,100116.41
2018-11-22T14:00:35.297Z,100112.45
2018-11-22T14:03:39.853Z,100110.84
2018-11-22T14:06:44.391Z,100115.53
2018-11-22T14:09:48.916Z,100115.58
2018-11-22T14:12:53.535Z,100121.06
2018-11-22T14:15:58.119Z,100121.78
2018-11-22T14:19:02.783Z,100125.87
2018-11-22T14:22:07.352Z,100127.53
2018-11-22T14:25:13.323Z,100132.90
2018-11-22T14:28:17.861Z,100130.66
2018-11-22T14:31:22.420Z,100132.16
2018-11-22T14:34:26.971Z,100141.02
2018-11-22T14:37:31.612Z,100137.13
2018-11-22T14:40:36.172Z,100150.30
2018-11-22T14:43:40.759Z,100149.52
2018-11-22T14:46:45.312Z,100148.27
2018-11-22T14:49:49.980Z,100154.45
2018-11-22T14:53:08.056Z,100160.60
2018-11-22T14:56:12.747Z,100164.97
2018-11-22T14:59:17.384Z,100164.95
2018-11-22T15:02:21.988Z,100165.70
2018-11-22T15:05:26.573Z,100172.69
2018-11-22T15:08:31.121Z,100183.34
2018-11-22T15:11:35.680Z,100181.56
2018-11-22T15:14:40.234Z,100176.13
2018-11-22T15:17:44.882Z,100181.80
2018-11-22T15:20:49.434Z,100184.77
2018-11-22T15:23:53.959Z,100183.83
2018-11-22T15:26:58.642Z,100186.54
2018-11-22T15:30:03.550Z,100202.28
2018-11-22T15:33:08.139Z,100204.98
2018-11-22T15:36:12.683Z,100207.95
2018-11-22T15:39:17.418Z,100208.78
2018-11-22T15:42:21.964Z,100210.45
2018-11-22T15:45:30.322Z,100212.70
2018-11-22T15:48:32.010Z,100215.66
2018-11-22T15:51:36.568Z,100228.55
2018-11-22T15:54:41.195Z,100224.52
2018-11-22T15:57:47.142Z,100232.91
2018-11-22T16:00:51.758Z,100245.23
2018-11-22T16:03:56.393Z,100236.72
2018-11-22T16:07:01.248Z,100240.70
2018-11-22T16:10:08.620Z,100249.23
2018-11-22T16:13:13.559Z,100247.83
2018-11-22T16:16:18.166Z,100255.03
2018-11-22T16:19:22.851Z,100252.78
2018-11-22T16:22:27.398Z,100255.52
2018-11-22T16:25:31.998Z,100253.12
2018-11-22T16:28:36.599Z,100257.59
2018-11-22T16:31:41.291Z,100258.79
2018-11-22T16:34:45.904Z,100256.69
2018-11-22T16:37:50.475Z,100257.18
2018-11-22T16:40:55.052Z,100252.93
2018-11-22T16:44:03.247Z,100261.08
2018-11-22T16:47:04.380Z,100263.22
2018-11-22T16:50:10.208Z,100266.99
2018-11-22T16:53:14.810Z,100267.95
2018-11-22T16:56:19.365Z,100266.02
2018-11-22T16:59:24.016Z,100268.19
2018-11-22T17:02:28.573Z,100268.50
2018-11-22T17:05:33.746Z,100270.42
2018-11-22T17:08:38.289Z,100272.87
2018-11-22T17:11:42.901Z,100278.86
2018-11-22T17:14:47.460Z,100284.34
2018-11-22T17:17:52.522Z,100292.19
2018-11-22T17:20:57.156Z,100291.78
2018-11-22T17:24:01.743Z,100299.99
2018-11-22T17:27:06.716Z,100290.41
2018-11-22T17:30:13.944Z,100295.34
2018-11-22T17:33:18.607Z,100288.91
2018-11-22T17:36:23.168Z,100294.05
2018-11-22T17:39:31.448Z,100297.86
2018-11-22T17:42:32.658Z,100298.59
2018-11-22T17:45:38.639Z,100297.02
2018-11-22T17:48:43.270Z,100295.95
2018-11-22T17:51:47.893Z,100301.03
2018-11-22T17:54:52.535Z,100304.73
2018-11-22T17:57:57.156Z,100305.80
2018-11-22T18:01:01.765Z,100302.19
2018-11-22T18:04:06.403Z,100307.34
2018-11-22T18:07:11.226Z,100304.94
2018-11-22T18:10:17.553Z,100308.83
2018-11-22T18:13:22.185Z,100314.97
2018-11-22T18:16:26.735Z,100310.03
2018-11-22T18:19:31.407Z,100313.53
2018-11-22T18:22:36.038Z,100315.47
2018-11-22T18:25:40.590Z,100313.98
2018-11-22T18:28:45.187Z,100318.68
2018-11-22T18:31:49.780Z,100312.17
2018-11-22T18:34:54.357Z,100312.92
2018-11-22T18:37:59.028Z,100314.67
2018-11-22T18:41:03.581Z,100315.28
2018-11-22T18:44:08.222Z,100318.22
2018-11-22T18:47:12.821Z,100320.41
2018-11-22T18:50:25.163Z,100320.59
2018-11-22T18:53:29.795Z,100318.58
2018-11-22T18:56:37.104Z,100324.87
2018-11-22T18:59:38.981Z,100332.56
2018-11-22T19:02:43.714Z,100332.06
2018-11-22T19:05:48.410Z,100338.28
2018-11-22T19:08:53.108Z,100338.62
2018-11-22T19:11:57.693Z,100337.20
2018-11-22T19:15:02.241Z,100345.66
2018-11-22T19:18:07.588Z,100348.42
2018-11-22T19:21:12.257Z,100348.52
2018-11-22T19:24:16.827Z,100352.33
2018-11-22T19:27:21.425Z,100351.48
2018-11-22T19:30:27.322Z,100358.27
2018-11-22T19:33:31.889Z,100358.98
2018-11-22T19:36:36.486Z,100360.72
2018-11-22T19:39:41.116Z,100358.36
2018-11-22T19:42:46.753Z,100353.56
2018-11-22T19:45:51.372Z,100358.86
2018-11-22T19:48:56.058Z,100355.25
2018-11-22T19:52:00.628Z,100354.40
2018-11-22T19:55:05.587Z,100349.95
2018-11-22T19:58:11.677Z,100351.97
2018-11-22T20:01:16.223Z,100347.13
2018-11-22T20:04:20.849Z,100353.09
2018-11-22T20:07:25.773Z,100350.73
2018-11-22T20:10:31.792Z,100354.88
2018-11-22T20:13:36.364Z,100362.21
2018-11-22T20:16:40.972Z,100356.02
2018-11-22T20:19:45.721Z,100356.63
2018-11-22T20:22:50.617Z,100366.72
2018-11-22T20:25:55.189Z,100362.03
2018-11-22T20:28:59.824Z,100370.09
2018-11-22T20:32:04.454Z,100378.78
2018-11-22T20:35:11.393Z,100372.91
2018-11-22T20:38:16.024Z,100380.42
2018-11-22T20:41:20.615Z,100371.67
2018-11-22T20:44:25.226Z,100380.02
2018-11-22T20:47:29.807Z,100373.95
2018-11-22T20:50:35.220Z,100381.58
2018-11-22T20:53:40.213Z,100383.63
2018-11-22T20:56:44.766Z,100384.62
2018-11-22T20:59:49.328Z,100381.94
2018-11-22T21:02:53.904Z,100392.71
2018-11-22T21:05:58.517Z,100392.56
2018-11-22T21:09:03.462Z,100398.30
2018-11-22T21:12:11.631Z,100396.43
2018-11-22T21:15:19.755Z,100399.86
2018-11-22T21:18:24.303Z,100404.00
2018-11-22T21:21:29.053Z,100404.73
2018-11-22T21:24:33.666Z,100409.17
2018-11-22T21:27:38.646Z,100414.72
2018-11-22T21:30:43.588Z,100413.94
2018-11-22T21:33:48.530Z,100411.95
2018-11-22T21:36:53.116Z,100411.31
2018-11-22T21:39:57.975Z,100412.19
2018-11-22T21:43:02.685Z,100412.94
2018-11-22T21:46:07.345Z,100405.91
2018-11-22T21:49:15.937Z,100410.52
2018-11-22T21:52:20.481Z,100415.23
2018-11-22T21:55:27.481Z,100414.17
2018-11-22T21:58:32.030Z,100407.96
2018-11-22T22:01:36.620Z,100406.52
2018-11-22T22:04:41.177Z,100401.86
2018-11-22T22:07:45.772Z,100396.61
2018-11-22T22:10:50.342Z,100396.19
2018-11-22T22:13:54.923Z,100404.22
2018-11-22T22:16:59.474Z,100400.82
2018-11-22T22:20:04.500Z,100399.70
2018-11-22T22:23:13.202Z,100402.28
2018-11-22T22:26:13.642Z,100403.44
2018-11-22T22:29:18.207Z,100401.59
2018-11-22T22:32:22.777Z,100397.84
2018-11-22T22:35:27.426Z,100404.16
2018-11-22T22:38:32.009Z,100409.02
2018-11-22T22:41:36.557Z,100400.70
2018-11-22T22:44:41.174Z,100398.88
2018-11-22T22:47:46.479Z,100397.56
2018-11-22T22:50:51.095Z,100397.05
2018-11-22T22:53:55.736Z,100399.15
2018-11-22T22:57:00.316Z,100394.77
2018-11-22T23:00:06.147Z,100386.27
2018-11-22T23:03:10.779Z,100392.66
2018-11-22T23:06:15.579Z,100398.02
2018-11-22T23:09:20.168Z,100394.05
2018-11-22T23:12:24.715Z,100397.27
2018-11-22T23:15:30.282Z,100398.27
2018-11-22T23:18:35.180Z,100401.06
2018-11-22T23:21:39.824Z,100400.08
2018-11-22T23:24:44.472Z,100392.23
2018-11-22T23:27:49.032Z,100400.23
2018-11-22T23:30:53.639Z,100396.59
2018-11-22T23:33:58.171Z,100399.86
2018-11-22T23:37:02.812Z,100397.31
2018-11-22T23:40:09.810Z,100398.72
2018-11-22T23:43:14.410Z,100394.47
2018-11-22T23:46:19.035Z,100393.89
2018-11-22T23:49:23.636Z,100394.22
2018-11-22T23:52:28.259Z,100393.31
2018-11-22T23:55:32.925Z,100397.59
2018-11-22T23:58:37.487Z,100405.30
